This is the latest recevied weather packets stored in our database for station/object OE7BJT-13. If no packets are shown the sender has not sent any weather packets the latest 10 day(s).
| Time | Temp. | Humidity | Pressure | Rain* | Wind** | Luminosity | Snow |
|---|---|---|---|---|---|---|---|
| 1777877032 | 15.56° C | 57% | 1016 hPa | - | - | - | - |
| 1777876426 | 14.44° C | 61% | 1016 hPa | - | - | - | - |
| 1777875821 | 13.89° C | 65% | 1016 hPa | - | - | - | - |
| 1777875215 | 13.89° C | 68% | 1016 hPa | - | - | - | - |
| 1777874004 | 11.67° C | 75% | 1016 hPa | - | - | - | - |
| 1777873398 | 11.67° C | 78% | 1016 hPa | - | - | - | - |
| 1777872793 | 11.67° C | 76% | 1016 hPa | - | - | - | - |
| 1777872187 | 10.56° C | 80% | 1016 hPa | - | - | - | - |
| 1777871581 | 10.56° C | 81% | 1016 hPa | - | - | - | - |
| 1777870370 | 10° C | 82% | 1016 hPa | - | - | - | - |
| 1777869765 | 10.56° C | 80% | 1016 hPa | - | - | - | - |
| 1777869159 | 10° C | 83% | 1016 hPa | - | - | - | - |
| 1777868553 | 9.44° C | 85% | 1016 hPa | - | - | - | - |
| 1777867342 | 10° C | 83% | 1016 hPa | - | - | - | - |
| 1777866737 | 9.44° C | 84% | 1016 hPa | - | - | - | - |
| 1777866131 | 10° C | 84% | 1016 hPa | - | - | - | - |
| 1777865525 | 10.56° C | 81% | 1016 hPa | - | - | - | - |
| 1777864920 | 10° C | 83% | 1016 hPa | - | - | - | - |
| 1777864314 | 10.56° C | 81% | 1016 hPa | - | - | - | - |
| 1777863709 | 10.56° C | 82% | 1016 hPa | - | - | - | - |
| 1777863103 | 10.56° C | 81% | 1016 hPa | - | - | - | - |
| 1777862498 | 11.11° C | 76% | 1016 hPa | - | - | - | - |
| 1777861892 | 11.11° C | 77% | 1016 hPa | - | - | - | - |
| 1777861286 | 11.11° C | 77% | 1016 hPa | - | - | - | - |
| 1777860681 | 11.11° C | 78% | 1016 hPa | - | - | - | - |
* Rain since midnight (hover to see other rain measurements)
** Current wind speed in m/s (hover to see current wind gust speed)